<?xml version="1.0" encoding="UTF-8" standalone="no" ?>
<gpx xmlns="http://www.topografix.com/GPX/1/1" xmlns:xsi="http://www.w3.org/2001/XMLSchema-instance" xsi:schemaLocation="http://www.topografix.com/GPX/1/1 http://www.topografix.com/GPX/1/1/gpx.xsd" version="1.1" creator="VisuGPX - https://www.visugpx.com">
  <metadata>
    <name>Laugnac VTT-FFC 7</name>
    <desc><![CDATA[circuit bleu n°7 VTT-FFC à Laugnac
14kms 330m D ]]></desc>
  </metadata>
  <trk>
    <name><![CDATA[7-Laugnac 14-300]]></name>
    <desc><![CDATA[fait le 30/06/2012]]></desc>
    <trkseg>
      <trkpt lat="44.30616" lon="0.60632">
        <ele>190.96</ele>
        <time>2012-06-30T05:54:02Z</time>
      </trkpt>
      <trkpt lat="44.30616" lon="0.60632">
        <ele>194.32</ele>
        <time>2012-06-30T05:54:03Z</time>
      </trkpt>
      <trkpt lat="44.30616" lon="0.60632">
        <ele>190.96</ele>
        <time>2012-06-30T05:54:10Z</time>
      </trkpt>
      <trkpt lat="44.30616" lon="0.60632">
        <ele>193.84</ele>
        <time>2012-06-30T05:54:11Z</time>
      </trkpt>
      <trkpt lat="44.30616" lon="0.60632">
        <ele>193.36</ele>
        <time>2012-06-30T05:54:38Z</time>
      </trkpt>
      <trkpt lat="44.30628" lon="0.60625">
        <ele>192.88</ele>
        <time>2012-06-30T05:54:52Z</time>
      </trkpt>
      <trkpt lat="44.30631" lon="0.60627">
        <ele>193.36</ele>
        <time>2012-06-30T05:54:54Z</time>
      </trkpt>
      <trkpt lat="44.30668" lon="0.60553">
        <ele>193.36</ele>
        <time>2012-06-30T05:55:15Z</time>
      </trkpt>
      <trkpt lat="44.30697" lon="0.60484">
        <ele>193.84</ele>
        <time>2012-06-30T05:55:32Z</time>
      </trkpt>
      <trkpt lat="44.30702" lon="0.60433">
        <ele>194.32</ele>
        <time>2012-06-30T05:55:43Z</time>
      </trkpt>
      <trkpt lat="44.30703" lon="0.60411">
        <ele>193.84</ele>
        <time>2012-06-30T05:55:47Z</time>
      </trkpt>
      <trkpt lat="44.30711" lon="0.60356">
        <ele>192.88</ele>
        <time>2012-06-30T05:55:56Z</time>
      </trkpt>
      <trkpt lat="44.30666" lon="0.6007">
        <ele>193.84</ele>
        <time>2012-06-30T05:56:46Z</time>
      </trkpt>
      <trkpt lat="44.30643" lon="0.59951">
        <ele>191.92</ele>
        <time>2012-06-30T05:57:06Z</time>
      </trkpt>
      <trkpt lat="44.30638" lon="0.59932">
        <ele>191.92</ele>
        <time>2012-06-30T05:57:09Z</time>
      </trkpt>
      <trkpt lat="44.30633" lon="0.59891">
        <ele>190</ele>
        <time>2012-06-30T05:57:16Z</time>
      </trkpt>
      <trkpt lat="44.30684" lon="0.59834">
        <ele>185.67</ele>
        <time>2012-06-30T05:57:28Z</time>
      </trkpt>
      <trkpt lat="44.30712" lon="0.59837">
        <ele>179.9</ele>
        <time>2012-06-30T05:57:38Z</time>
      </trkpt>
      <trkpt lat="44.30665" lon="0.59779">
        <ele>175.1</ele>
        <time>2012-06-30T05:57:50Z</time>
      </trkpt>
      <trkpt lat="44.30666" lon="0.59764">
        <ele>173.17</ele>
        <time>2012-06-30T05:57:52Z</time>
      </trkpt>
      <trkpt lat="44.30676" lon="0.59749">
        <ele>169.33</ele>
        <time>2012-06-30T05:57:54Z</time>
      </trkpt>
      <trkpt lat="44.30712" lon="0.59689">
        <ele>160.2</ele>
        <time>2012-06-30T05:58:01Z</time>
      </trkpt>
      <trkpt lat="44.30719" lon="0.59638">
        <ele>153.95</ele>
        <time>2012-06-30T05:58:06Z</time>
      </trkpt>
      <trkpt lat="44.30758" lon="0.5955">
        <ele>141.45</ele>
        <time>2012-06-30T05:58:38Z</time>
      </trkpt>
      <trkpt lat="44.30761" lon="0.59513">
        <ele>135.68</ele>
        <time>2012-06-30T05:58:42Z</time>
      </trkpt>
      <trkpt lat="44.30763" lon="0.59466">
        <ele>129.92</ele>
        <time>2012-06-30T05:58:46Z</time>
      </trkpt>
      <trkpt lat="44.30673" lon="0.59266">
        <ele>120.78</ele>
        <time>2012-06-30T05:59:12Z</time>
      </trkpt>
      <trkpt lat="44.30697" lon="0.59222">
        <ele>115.01</ele>
        <time>2012-06-30T05:59:22Z</time>
      </trkpt>
      <trkpt lat="44.30569" lon="0.59118">
        <ele>125.11</ele>
        <time>2012-06-30T06:00:31Z</time>
      </trkpt>
      <trkpt lat="44.30492" lon="0.59076">
        <ele>128.95</ele>
        <time>2012-06-30T06:01:09Z</time>
      </trkpt>
      <trkpt lat="44.30462" lon="0.59058">
        <ele>133.28</ele>
        <time>2012-06-30T06:01:29Z</time>
      </trkpt>
      <trkpt lat="44.30402" lon="0.59039">
        <ele>139.05</ele>
        <time>2012-06-30T06:02:06Z</time>
      </trkpt>
      <trkpt lat="44.30387" lon="0.59043">
        <ele>137.13</ele>
        <time>2012-06-30T06:02:12Z</time>
      </trkpt>
      <trkpt lat="44.30387" lon="0.59054">
        <ele>137.61</ele>
        <time>2012-06-30T06:02:16Z</time>
      </trkpt>
      <trkpt lat="44.30384" lon="0.59111">
        <ele>141.93</ele>
        <time>2012-06-30T06:02:38Z</time>
      </trkpt>
      <trkpt lat="44.30385" lon="0.59132">
        <ele>141.93</ele>
        <time>2012-06-30T06:02:46Z</time>
      </trkpt>
      <trkpt lat="44.30388" lon="0.59136">
        <ele>141.93</ele>
        <time>2012-06-30T06:02:51Z</time>
      </trkpt>
      <trkpt lat="44.30382" lon="0.59288">
        <ele>140.97</ele>
        <time>2012-06-30T06:03:25Z</time>
      </trkpt>
      <trkpt lat="44.30366" lon="0.59376">
        <ele>138.57</ele>
        <time>2012-06-30T06:03:35Z</time>
      </trkpt>
      <trkpt lat="44.30339" lon="0.59493">
        <ele>131.84</ele>
        <time>2012-06-30T06:03:49Z</time>
      </trkpt>
      <trkpt lat="44.30184" lon="0.59574">
        <ele>136.64</ele>
        <time>2012-06-30T06:04:42Z</time>
      </trkpt>
      <trkpt lat="44.30189" lon="0.59689">
        <ele>145.3</ele>
        <time>2012-06-30T06:05:33Z</time>
      </trkpt>
      <trkpt lat="44.30175" lon="0.59716">
        <ele>149.62</ele>
        <time>2012-06-30T06:05:55Z</time>
      </trkpt>
      <trkpt lat="44.30138" lon="0.5973">
        <ele>157.79</ele>
        <time>2012-06-30T06:06:31Z</time>
      </trkpt>
      <trkpt lat="44.30156" lon="0.59717">
        <ele>155.39</ele>
        <time>2012-06-30T06:06:39Z</time>
      </trkpt>
      <trkpt lat="44.3017" lon="0.59684">
        <ele>154.91</ele>
        <time>2012-06-30T06:06:46Z</time>
      </trkpt>
      <trkpt lat="44.30167" lon="0.59676">
        <ele>155.39</ele>
        <time>2012-06-30T06:06:48Z</time>
      </trkpt>
      <trkpt lat="44.30164" lon="0.59665">
        <ele>155.39</ele>
        <time>2012-06-30T06:06:51Z</time>
      </trkpt>
      <trkpt lat="44.30132" lon="0.59657">
        <ele>156.35</ele>
        <time>2012-06-30T06:07:04Z</time>
      </trkpt>
      <trkpt lat="44.30113" lon="0.59651">
        <ele>155.39</ele>
        <time>2012-06-30T06:07:11Z</time>
      </trkpt>
      <trkpt lat="44.3009" lon="0.59664">
        <ele>158.75</ele>
        <time>2012-06-30T06:07:23Z</time>
      </trkpt>
      <trkpt lat="44.30056" lon="0.5971">
        <ele>170.77</ele>
        <time>2012-06-30T06:08:17Z</time>
      </trkpt>
      <trkpt lat="44.30017" lon="0.59727">
        <ele>180.38</ele>
        <time>2012-06-30T06:10:23Z</time>
      </trkpt>
      <trkpt lat="44.30009" lon="0.59727">
        <ele>181.83</ele>
        <time>2012-06-30T06:10:31Z</time>
      </trkpt>
      <trkpt lat="44.30003" lon="0.59724">
        <ele>179.9</ele>
        <time>2012-06-30T06:10:35Z</time>
      </trkpt>
      <trkpt lat="44.29976" lon="0.59714">
        <ele>181.35</ele>
        <time>2012-06-30T06:10:44Z</time>
      </trkpt>
      <trkpt lat="44.2996" lon="0.5975">
        <ele>187.59</ele>
        <time>2012-06-30T06:12:13Z</time>
      </trkpt>
      <trkpt lat="44.29921" lon="0.59788">
        <ele>191.92</ele>
        <time>2012-06-30T06:13:00Z</time>
      </trkpt>
      <trkpt lat="44.29819" lon="0.59835">
        <ele>195.28</ele>
        <time>2012-06-30T06:13:55Z</time>
      </trkpt>
      <trkpt lat="44.2971" lon="0.5982">
        <ele>182.79</ele>
        <time>2012-06-30T06:14:16Z</time>
      </trkpt>
      <trkpt lat="44.29694" lon="0.59852">
        <ele>176.06</ele>
        <time>2012-06-30T06:14:23Z</time>
      </trkpt>
      <trkpt lat="44.29675" lon="0.59861">
        <ele>172.69</ele>
        <time>2012-06-30T06:14:25Z</time>
      </trkpt>
      <trkpt lat="44.29435" lon="0.59925">
        <ele>157.79</ele>
        <time>2012-06-30T06:15:17Z</time>
      </trkpt>
      <trkpt lat="44.29322" lon="0.59843">
        <ele>177.98</ele>
        <time>2012-06-30T06:17:13Z</time>
      </trkpt>
      <trkpt lat="44.29303" lon="0.59845">
        <ele>182.79</ele>
        <time>2012-06-30T06:17:42Z</time>
      </trkpt>
      <trkpt lat="44.2927" lon="0.59883">
        <ele>184.23</ele>
        <time>2012-06-30T06:18:12Z</time>
      </trkpt>
      <trkpt lat="44.29267" lon="0.59883">
        <ele>184.23</ele>
        <time>2012-06-30T06:18:14Z</time>
      </trkpt>
      <trkpt lat="44.29124" lon="0.59756">
        <ele>191.44</ele>
        <time>2012-06-30T06:19:54Z</time>
      </trkpt>
      <trkpt lat="44.29071" lon="0.59717">
        <ele>190.48</ele>
        <time>2012-06-30T06:20:21Z</time>
      </trkpt>
      <trkpt lat="44.29057" lon="0.59802">
        <ele>194.32</ele>
        <time>2012-06-30T06:22:36Z</time>
      </trkpt>
      <trkpt lat="44.29046" lon="0.59832">
        <ele>195.77</ele>
        <time>2012-06-30T06:22:48Z</time>
      </trkpt>
      <trkpt lat="44.29045" lon="0.59838">
        <ele>195.77</ele>
        <time>2012-06-30T06:22:50Z</time>
      </trkpt>
      <trkpt lat="44.28975" lon="0.6001">
        <ele>203.94</ele>
        <time>2012-06-30T06:24:01Z</time>
      </trkpt>
      <trkpt lat="44.28915" lon="0.60239">
        <ele>208.74</ele>
        <time>2012-06-30T06:25:24Z</time>
      </trkpt>
      <trkpt lat="44.28882" lon="0.60361">
        <ele>210.67</ele>
        <time>2012-06-30T06:25:57Z</time>
      </trkpt>
      <trkpt lat="44.2889" lon="0.60378">
        <ele>208.74</ele>
        <time>2012-06-30T06:26:02Z</time>
      </trkpt>
      <trkpt lat="44.28911" lon="0.60384">
        <ele>203.46</ele>
        <time>2012-06-30T06:26:07Z</time>
      </trkpt>
      <trkpt lat="44.2893" lon="0.60392">
        <ele>198.65</ele>
        <time>2012-06-30T06:26:11Z</time>
      </trkpt>
      <trkpt lat="44.28948" lon="0.60399">
        <ele>194.32</ele>
        <time>2012-06-30T06:26:14Z</time>
      </trkpt>
      <trkpt lat="44.2901" lon="0.60424">
        <ele>185.67</ele>
        <time>2012-06-30T06:26:23Z</time>
      </trkpt>
      <trkpt lat="44.29046" lon="0.60442">
        <ele>186.15</ele>
        <time>2012-06-30T06:26:28Z</time>
      </trkpt>
      <trkpt lat="44.29245" lon="0.60569">
        <ele>184.71</ele>
        <time>2012-06-30T06:27:25Z</time>
      </trkpt>
      <trkpt lat="44.29262" lon="0.60604">
        <ele>181.83</ele>
        <time>2012-06-30T06:27:35Z</time>
      </trkpt>
      <trkpt lat="44.29308" lon="0.60635">
        <ele>176.54</ele>
        <time>2012-06-30T06:27:42Z</time>
      </trkpt>
      <trkpt lat="44.29322" lon="0.60661">
        <ele>175.1</ele>
        <time>2012-06-30T06:27:45Z</time>
      </trkpt>
      <trkpt lat="44.29354" lon="0.60711">
        <ele>171.25</ele>
        <time>2012-06-30T06:27:54Z</time>
      </trkpt>
      <trkpt lat="44.29416" lon="0.60738">
        <ele>164.04</ele>
        <time>2012-06-30T06:28:02Z</time>
      </trkpt>
      <trkpt lat="44.29697" lon="0.60795">
        <ele>190</ele>
        <time>2012-06-30T06:30:19Z</time>
      </trkpt>
      <trkpt lat="44.29842" lon="0.6081">
        <ele>191.44</ele>
        <time>2012-06-30T06:31:23Z</time>
      </trkpt>
      <trkpt lat="44.29981" lon="0.60928">
        <ele>198.65</ele>
        <time>2012-06-30T06:32:43Z</time>
      </trkpt>
      <trkpt lat="44.29895" lon="0.61149">
        <ele>209.22</ele>
        <time>2012-06-30T06:34:36Z</time>
      </trkpt>
      <trkpt lat="44.29891" lon="0.61174">
        <ele>210.19</ele>
        <time>2012-06-30T06:34:46Z</time>
      </trkpt>
      <trkpt lat="44.29881" lon="0.61226">
        <ele>209.22</ele>
        <time>2012-06-30T06:39:58Z</time>
      </trkpt>
      <trkpt lat="44.29858" lon="0.61432">
        <ele>211.15</ele>
        <time>2012-06-30T06:41:11Z</time>
      </trkpt>
      <trkpt lat="44.2985" lon="0.6144">
        <ele>210.19</ele>
        <time>2012-06-30T06:41:14Z</time>
      </trkpt>
      <trkpt lat="44.29843" lon="0.61449">
        <ele>209.7</ele>
        <time>2012-06-30T06:41:16Z</time>
      </trkpt>
      <trkpt lat="44.29808" lon="0.61492">
        <ele>206.82</ele>
        <time>2012-06-30T06:41:25Z</time>
      </trkpt>
      <trkpt lat="44.29879" lon="0.61529">
        <ele>214.99</ele>
        <time>2012-06-30T06:42:19Z</time>
      </trkpt>
      <trkpt lat="44.29925" lon="0.61528">
        <ele>220.76</ele>
        <time>2012-06-30T06:42:55Z</time>
      </trkpt>
      <trkpt lat="44.2993" lon="0.61527">
        <ele>221.24</ele>
        <time>2012-06-30T06:42:58Z</time>
      </trkpt>
      <trkpt lat="44.29995" lon="0.61536">
        <ele>223.64</ele>
        <time>2012-06-30T06:43:40Z</time>
      </trkpt>
      <trkpt lat="44.30009" lon="0.6159">
        <ele>226.53</ele>
        <time>2012-06-30T06:44:13Z</time>
      </trkpt>
      <trkpt lat="44.30028" lon="0.61859">
        <ele>229.89</ele>
        <time>2012-06-30T06:46:00Z</time>
      </trkpt>
      <trkpt lat="44.29974" lon="0.62069">
        <ele>237.1</ele>
        <time>2012-06-30T06:47:24Z</time>
      </trkpt>
      <trkpt lat="44.29939" lon="0.6213">
        <ele>239.99</ele>
        <time>2012-06-30T06:48:05Z</time>
      </trkpt>
      <trkpt lat="44.29938" lon="0.62131">
        <ele>239.51</ele>
        <time>2012-06-30T06:48:40Z</time>
      </trkpt>
      <trkpt lat="44.2993" lon="0.62154">
        <ele>240.95</ele>
        <time>2012-06-30T06:49:42Z</time>
      </trkpt>
      <trkpt lat="44.29903" lon="0.62238">
        <ele>242.39</ele>
        <time>2012-06-30T06:50:10Z</time>
      </trkpt>
      <trkpt lat="44.29896" lon="0.62466">
        <ele>234.22</ele>
        <time>2012-06-30T06:50:38Z</time>
      </trkpt>
      <trkpt lat="44.29843" lon="0.6259">
        <ele>232.3</ele>
        <time>2012-06-30T06:50:56Z</time>
      </trkpt>
      <trkpt lat="44.29834" lon="0.62606">
        <ele>231.33</ele>
        <time>2012-06-30T06:50:59Z</time>
      </trkpt>
      <trkpt lat="44.29812" lon="0.62668">
        <ele>230.85</ele>
        <time>2012-06-30T06:51:09Z</time>
      </trkpt>
      <trkpt lat="44.29812" lon="0.62686">
        <ele>231.33</ele>
        <time>2012-06-30T06:51:12Z</time>
      </trkpt>
      <trkpt lat="44.29716" lon="0.62847">
        <ele>223.64</ele>
        <time>2012-06-30T06:51:36Z</time>
      </trkpt>
      <trkpt lat="44.29676" lon="0.62916">
        <ele>219.8</ele>
        <time>2012-06-30T06:51:44Z</time>
      </trkpt>
      <trkpt lat="44.29642" lon="0.62938">
        <ele>214.99</ele>
        <time>2012-06-30T06:51:55Z</time>
      </trkpt>
      <trkpt lat="44.29621" lon="0.6302">
        <ele>208.74</ele>
        <time>2012-06-30T06:52:08Z</time>
      </trkpt>
      <trkpt lat="44.29628" lon="0.63057">
        <ele>206.34</ele>
        <time>2012-06-30T06:52:15Z</time>
      </trkpt>
      <trkpt lat="44.29664" lon="0.63076">
        <ele>204.42</ele>
        <time>2012-06-30T06:52:38Z</time>
      </trkpt>
      <trkpt lat="44.2978" lon="0.63191">
        <ele>189.04</ele>
        <time>2012-06-30T06:53:12Z</time>
      </trkpt>
      <trkpt lat="44.29804" lon="0.63252">
        <ele>187.59</ele>
        <time>2012-06-30T06:53:18Z</time>
      </trkpt>
      <trkpt lat="44.2978" lon="0.63324">
        <ele>190.48</ele>
        <time>2012-06-30T06:53:32Z</time>
      </trkpt>
      <trkpt lat="44.29774" lon="0.63445">
        <ele>194.32</ele>
        <time>2012-06-30T06:54:05Z</time>
      </trkpt>
      <trkpt lat="44.29778" lon="0.63536">
        <ele>196.25</ele>
        <time>2012-06-30T06:54:32Z</time>
      </trkpt>
      <trkpt lat="44.2979" lon="0.63775">
        <ele>200.09</ele>
        <time>2012-06-30T06:55:45Z</time>
      </trkpt>
      <trkpt lat="44.29796" lon="0.6389">
        <ele>200.09</ele>
        <time>2012-06-30T06:56:15Z</time>
      </trkpt>
      <trkpt lat="44.29798" lon="0.63901">
        <ele>198.17</ele>
        <time>2012-06-30T06:56:17Z</time>
      </trkpt>
      <trkpt lat="44.29861" lon="0.639">
        <ele>196.73</ele>
        <time>2012-06-30T06:56:39Z</time>
      </trkpt>
      <trkpt lat="44.29877" lon="0.63907">
        <ele>194.8</ele>
        <time>2012-06-30T06:56:42Z</time>
      </trkpt>
      <trkpt lat="44.29891" lon="0.63921">
        <ele>192.88</ele>
        <time>2012-06-30T06:56:45Z</time>
      </trkpt>
      <trkpt lat="44.29921" lon="0.63972">
        <ele>190.96</ele>
        <time>2012-06-30T06:56:52Z</time>
      </trkpt>
      <trkpt lat="44.29975" lon="0.64051">
        <ele>192.4</ele>
        <time>2012-06-30T06:57:05Z</time>
      </trkpt>
      <trkpt lat="44.29995" lon="0.64121">
        <ele>195.77</ele>
        <time>2012-06-30T06:57:21Z</time>
      </trkpt>
      <trkpt lat="44.30023" lon="0.64174">
        <ele>196.73</ele>
        <time>2012-06-30T06:57:36Z</time>
      </trkpt>
      <trkpt lat="44.30057" lon="0.64211">
        <ele>196.25</ele>
        <time>2012-06-30T06:57:49Z</time>
      </trkpt>
      <trkpt lat="44.30231" lon="0.64119">
        <ele>192.4</ele>
        <time>2012-06-30T06:58:27Z</time>
      </trkpt>
      <trkpt lat="44.30383" lon="0.64">
        <ele>193.84</ele>
        <time>2012-06-30T06:59:12Z</time>
      </trkpt>
      <trkpt lat="44.30497" lon="0.63914">
        <ele>192.4</ele>
        <time>2012-06-30T06:59:41Z</time>
      </trkpt>
      <trkpt lat="44.30497" lon="0.6384">
        <ele>187.11</ele>
        <time>2012-06-30T06:59:50Z</time>
      </trkpt>
      <trkpt lat="44.30494" lon="0.63782">
        <ele>183.75</ele>
        <time>2012-06-30T06:59:55Z</time>
      </trkpt>
      <trkpt lat="44.30489" lon="0.63705">
        <ele>184.23</ele>
        <time>2012-06-30T07:00:05Z</time>
      </trkpt>
      <trkpt lat="44.30549" lon="0.6377">
        <ele>186.63</ele>
        <time>2012-06-30T07:00:30Z</time>
      </trkpt>
      <trkpt lat="44.30573" lon="0.6378">
        <ele>187.59</ele>
        <time>2012-06-30T07:00:47Z</time>
      </trkpt>
      <trkpt lat="44.30592" lon="0.63754">
        <ele>188.08</ele>
        <time>2012-06-30T07:00:59Z</time>
      </trkpt>
      <trkpt lat="44.30647" lon="0.63702">
        <ele>187.11</ele>
        <time>2012-06-30T07:01:16Z</time>
      </trkpt>
      <trkpt lat="44.30668" lon="0.63696">
        <ele>185.67</ele>
        <time>2012-06-30T07:01:21Z</time>
      </trkpt>
      <trkpt lat="44.30677" lon="0.63692">
        <ele>185.19</ele>
        <time>2012-06-30T07:01:23Z</time>
      </trkpt>
      <trkpt lat="44.30686" lon="0.63685">
        <ele>185.19</ele>
        <time>2012-06-30T07:01:25Z</time>
      </trkpt>
      <trkpt lat="44.30708" lon="0.63633">
        <ele>186.63</ele>
        <time>2012-06-30T07:01:57Z</time>
      </trkpt>
      <trkpt lat="44.30753" lon="0.63591">
        <ele>188.08</ele>
        <time>2012-06-30T07:02:23Z</time>
      </trkpt>
      <trkpt lat="44.30741" lon="0.63524">
        <ele>184.71</ele>
        <time>2012-06-30T07:02:38Z</time>
      </trkpt>
      <trkpt lat="44.3075" lon="0.63499">
        <ele>183.27</ele>
        <time>2012-06-30T07:02:46Z</time>
      </trkpt>
      <trkpt lat="44.30885" lon="0.63402">
        <ele>182.79</ele>
        <time>2012-06-30T07:03:32Z</time>
      </trkpt>
      <trkpt lat="44.31051" lon="0.63248">
        <ele>183.75</ele>
        <time>2012-06-30T07:04:45Z</time>
      </trkpt>
      <trkpt lat="44.31098" lon="0.63169">
        <ele>182.31</ele>
        <time>2012-06-30T07:05:07Z</time>
      </trkpt>
      <trkpt lat="44.31138" lon="0.6315">
        <ele>182.79</ele>
        <time>2012-06-30T07:05:24Z</time>
      </trkpt>
      <trkpt lat="44.31147" lon="0.63142">
        <ele>180.87</ele>
        <time>2012-06-30T07:05:27Z</time>
      </trkpt>
      <trkpt lat="44.31204" lon="0.63034">
        <ele>181.35</ele>
        <time>2012-06-30T07:05:56Z</time>
      </trkpt>
      <trkpt lat="44.31228" lon="0.62972">
        <ele>179.42</ele>
        <time>2012-06-30T07:06:07Z</time>
      </trkpt>
      <trkpt lat="44.31261" lon="0.62855">
        <ele>182.31</ele>
        <time>2012-06-30T07:06:33Z</time>
      </trkpt>
      <trkpt lat="44.31289" lon="0.62821">
        <ele>180.38</ele>
        <time>2012-06-30T07:06:43Z</time>
      </trkpt>
      <trkpt lat="44.31327" lon="0.62702">
        <ele>181.35</ele>
        <time>2012-06-30T07:07:11Z</time>
      </trkpt>
      <trkpt lat="44.31327" lon="0.62654">
        <ele>179.42</ele>
        <time>2012-06-30T07:07:20Z</time>
      </trkpt>
      <trkpt lat="44.31348" lon="0.62461">
        <ele>182.79</ele>
        <time>2012-06-30T07:08:05Z</time>
      </trkpt>
      <trkpt lat="44.31332" lon="0.62397">
        <ele>180.87</ele>
        <time>2012-06-30T07:08:16Z</time>
      </trkpt>
      <trkpt lat="44.31322" lon="0.6239">
        <ele>180.38</ele>
        <time>2012-06-30T07:08:18Z</time>
      </trkpt>
      <trkpt lat="44.31279" lon="0.62348">
        <ele>180.38</ele>
        <time>2012-06-30T07:08:29Z</time>
      </trkpt>
      <trkpt lat="44.31217" lon="0.62333">
        <ele>182.31</ele>
        <time>2012-06-30T07:08:51Z</time>
      </trkpt>
      <trkpt lat="44.31156" lon="0.62282">
        <ele>180.38</ele>
        <time>2012-06-30T07:09:07Z</time>
      </trkpt>
      <trkpt lat="44.31144" lon="0.62264">
        <ele>178.94</ele>
        <time>2012-06-30T07:09:12Z</time>
      </trkpt>
      <trkpt lat="44.31146" lon="0.62216">
        <ele>177.98</ele>
        <time>2012-06-30T07:09:20Z</time>
      </trkpt>
      <trkpt lat="44.3115" lon="0.62197">
        <ele>176.54</ele>
        <time>2012-06-30T07:09:23Z</time>
      </trkpt>
      <trkpt lat="44.31152" lon="0.62184">
        <ele>174.14</ele>
        <time>2012-06-30T07:09:25Z</time>
      </trkpt>
      <trkpt lat="44.31149" lon="0.6212">
        <ele>167.41</ele>
        <time>2012-06-30T07:09:30Z</time>
      </trkpt>
      <trkpt lat="44.31154" lon="0.62012">
        <ele>159.24</ele>
        <time>2012-06-30T07:09:37Z</time>
      </trkpt>
      <trkpt lat="44.31201" lon="0.61813">
        <ele>148.18</ele>
        <time>2012-06-30T07:09:51Z</time>
      </trkpt>
      <trkpt lat="44.31212" lon="0.61768">
        <ele>142.89</ele>
        <time>2012-06-30T07:09:55Z</time>
      </trkpt>
      <trkpt lat="44.31254" lon="0.6169">
        <ele>132.8</ele>
        <time>2012-06-30T07:10:03Z</time>
      </trkpt>
      <trkpt lat="44.3128" lon="0.61668">
        <ele>126.55</ele>
        <time>2012-06-30T07:10:07Z</time>
      </trkpt>
      <trkpt lat="44.31309" lon="0.61643">
        <ele>123.19</ele>
        <time>2012-06-30T07:10:12Z</time>
      </trkpt>
      <trkpt lat="44.31297" lon="0.61564">
        <ele>120.78</ele>
        <time>2012-06-30T07:10:27Z</time>
      </trkpt>
      <trkpt lat="44.31293" lon="0.61546">
        <ele>121.26</ele>
        <time>2012-06-30T07:10:35Z</time>
      </trkpt>
      <trkpt lat="44.31287" lon="0.61552">
        <ele>121.26</ele>
        <time>2012-06-30T07:12:35Z</time>
      </trkpt>
      <trkpt lat="44.31225" lon="0.61564">
        <ele>122.22</ele>
        <time>2012-06-30T07:12:59Z</time>
      </trkpt>
      <trkpt lat="44.30986" lon="0.6148">
        <ele>135.2</ele>
        <time>2012-06-30T07:16:48Z</time>
      </trkpt>
      <trkpt lat="44.30937" lon="0.61465">
        <ele>135.68</ele>
        <time>2012-06-30T07:18:07Z</time>
      </trkpt>
      <trkpt lat="44.30928" lon="0.61448">
        <ele>136.16</ele>
        <time>2012-06-30T07:18:18Z</time>
      </trkpt>
      <trkpt lat="44.30892" lon="0.61452">
        <ele>137.13</ele>
        <time>2012-06-30T07:18:40Z</time>
      </trkpt>
      <trkpt lat="44.30875" lon="0.61459">
        <ele>137.13</ele>
        <time>2012-06-30T07:18:49Z</time>
      </trkpt>
      <trkpt lat="44.30785" lon="0.61374">
        <ele>147.7</ele>
        <time>2012-06-30T07:20:13Z</time>
      </trkpt>
      <trkpt lat="44.30781" lon="0.61373">
        <ele>147.7</ele>
        <time>2012-06-30T07:20:17Z</time>
      </trkpt>
      <trkpt lat="44.3075" lon="0.61373">
        <ele>151.54</ele>
        <time>2012-06-30T07:20:45Z</time>
      </trkpt>
      <trkpt lat="44.30722" lon="0.61411">
        <ele>157.79</ele>
        <time>2012-06-30T07:21:21Z</time>
      </trkpt>
      <trkpt lat="44.3071" lon="0.61409">
        <ele>158.75</ele>
        <time>2012-06-30T07:21:34Z</time>
      </trkpt>
      <trkpt lat="44.30651" lon="0.61406">
        <ele>165.96</ele>
        <time>2012-06-30T07:22:28Z</time>
      </trkpt>
      <trkpt lat="44.30597" lon="0.61369">
        <ele>175.58</ele>
        <time>2012-06-30T07:23:22Z</time>
      </trkpt>
      <trkpt lat="44.30568" lon="0.61345">
        <ele>178.46</ele>
        <time>2012-06-30T07:23:46Z</time>
      </trkpt>
      <trkpt lat="44.30488" lon="0.61316">
        <ele>188.08</ele>
        <time>2012-06-30T07:24:54Z</time>
      </trkpt>
      <trkpt lat="44.30461" lon="0.61302">
        <ele>190.48</ele>
        <time>2012-06-30T07:25:15Z</time>
      </trkpt>
      <trkpt lat="44.30445" lon="0.61292">
        <ele>191.44</ele>
        <time>2012-06-30T07:25:27Z</time>
      </trkpt>
      <trkpt lat="44.30412" lon="0.61275">
        <ele>190.96</ele>
        <time>2012-06-30T07:25:43Z</time>
      </trkpt>
      <trkpt lat="44.30594" lon="0.6067">
        <ele>190.48</ele>
        <time>2012-06-30T07:31:03Z</time>
      </trkpt>
    </trkseg>
  </trk>
</gpx>